createdAt,value
2023-03-12T00:02:15.040Z,1.70
2023-03-12T00:04:42.146Z,4.28
2023-03-12T00:07:09.545Z,4.60
2023-03-12T00:09:39.214Z,3.92
2023-03-12T00:12:06.879Z,2.40
2023-03-12T00:14:34.195Z,4.22
2023-03-12T00:17:01.372Z,7.40
2023-03-12T00:19:28.468Z,7.80
2023-03-12T00:21:55.456Z,9.10
2023-03-12T00:24:22.469Z,12.75
2023-03-12T00:26:49.447Z,7.63
2023-03-12T00:29:16.451Z,5.35
2023-03-12T00:31:43.479Z,8.35
2023-03-12T00:34:11.164Z,9.40
2023-03-12T00:36:40.705Z,14.88
2023-03-12T00:39:07.862Z,7.00
2023-03-12T00:41:35.051Z,8.27
2023-03-12T00:44:02.209Z,6.68
2023-03-12T00:46:29.363Z,7.18
2023-03-12T00:48:56.554Z,7.93
2023-03-12T00:51:23.595Z,9.48
2023-03-12T00:53:50.525Z,11.70
2023-03-12T00:56:17.621Z,8.68
2023-03-12T00:58:44.667Z,8.27
2023-03-12T01:01:11.894Z,9.40
2023-03-12T01:03:39.041Z,9.77
2023-03-12T01:06:07.881Z,8.38
2023-03-12T01:08:34.860Z,5.93
2023-03-12T01:11:02.032Z,8.95
2023-03-12T01:13:29.766Z,9.77
2023-03-12T01:15:56.924Z,6.93
2023-03-12T01:18:23.890Z,4.63
2023-03-12T01:20:51.491Z,5.68
2023-03-12T01:23:18.634Z,8.18
2023-03-12T01:25:47.510Z,8.55
2023-03-12T01:28:14.555Z,4.28
2023-03-12T01:30:41.528Z,9.35
2023-03-12T01:33:08.569Z,10.75
2023-03-12T01:35:40.594Z,6.10
2023-03-12T01:38:12.841Z,5.65
2023-03-12T01:40:41.496Z,9.05
2023-03-12T01:43:34.087Z,9.10
2023-03-12T01:46:08.135Z,5.30
2023-03-12T01:48:43.453Z,9.23
2023-03-12T01:51:14.193Z,9.40
2023-03-12T01:53:45.260Z,5.35
2023-03-12T01:56:14.113Z,10.38
2023-03-12T01:58:47.142Z,7.82
2023-03-12T02:01:19.266Z,5.78
2023-03-12T02:03:49.965Z,7.50
2023-03-12T02:06:22.846Z,11.65
2023-03-12T02:08:51.281Z,7.90
2023-03-12T02:11:18.276Z,8.95
2023-03-12T02:13:45.330Z,11.05
2023-03-12T02:16:12.328Z,8.30
2023-03-12T02:18:39.418Z,7.60
2023-03-12T02:21:25.205Z,5.60
2023-03-12T02:24:03.212Z,6.13
2023-03-12T02:26:33.243Z,5.05
2023-03-12T02:29:01.687Z,7.82
2023-03-12T02:31:44.830Z,9.13
2023-03-12T02:34:12.991Z,4.35
2023-03-12T02:36:40.056Z,8.27
2023-03-12T02:39:07.410Z,5.57
2023-03-12T02:41:40.289Z,6.85
2023-03-12T02:44:11.778Z,5.07
2023-03-12T02:46:44.734Z,10.48
2023-03-12T02:49:13.301Z,7.80
2023-03-12T02:51:42.790Z,6.75
2023-03-12T02:54:10.363Z,7.50
2023-03-12T02:56:38.620Z,5.82
2023-03-12T02:59:07.185Z,4.05
2023-03-12T03:01:37.698Z,4.97
2023-03-12T03:04:08.271Z,9.00
2023-03-12T03:06:38.226Z,5.35
2023-03-12T03:09:05.667Z,8.35
2023-03-12T03:11:32.809Z,9.13
2023-03-12T03:14:04.370Z,6.00
2023-03-12T03:16:31.382Z,7.35
2023-03-12T03:18:59.272Z,6.30
2023-03-12T03:21:26.219Z,4.57
2023-03-12T03:23:53.273Z,8.50
2023-03-12T03:26:22.759Z,8.75
2023-03-12T03:28:50.897Z,6.53
2023-03-12T03:31:18.291Z,9.00
2023-03-12T03:33:45.897Z,5.07
2023-03-12T03:36:14.977Z,7.13
2023-03-12T03:38:50.597Z,4.32
2023-03-12T03:41:20.233Z,8.73
2023-03-12T03:43:48.016Z,6.55
2023-03-12T03:46:18.883Z,6.07
2023-03-12T03:48:51.034Z,5.25
2023-03-12T03:51:18.334Z,10.02
2023-03-12T03:53:48.853Z,6.80
2023-03-12T03:56:16.670Z,4.57
2023-03-12T03:58:47.637Z,8.43
2023-03-12T04:01:16.462Z,4.68
2023-03-12T04:03:45.268Z,7.13
2023-03-12T04:06:12.986Z,5.22
2023-03-12T04:08:40.832Z,4.45
2023-03-12T04:11:18.149Z,6.07
2023-03-12T04:13:46.309Z,6.15
2023-03-12T04:16:16.671Z,8.93
2023-03-12T04:18:44.786Z,8.90
2023-03-12T04:21:14.082Z,7.38
2023-03-12T04:23:42.057Z,5.55
2023-03-12T04:26:10.982Z,5.82
2023-03-12T04:28:38.562Z,4.10
2023-03-12T04:31:09.138Z,8.52
2023-03-12T04:33:49.993Z,6.55
2023-03-12T04:36:17.861Z,10.63
2023-03-12T04:38:47.796Z,7.50
2023-03-12T04:41:17.717Z,7.85
2023-03-12T04:43:52.449Z,7.65
2023-03-12T04:46:20.674Z,5.15
2023-03-12T04:48:48.709Z,4.80
2023-03-12T04:51:16.066Z,5.63
2023-03-12T04:53:43.384Z,5.85
2023-03-12T04:56:12.117Z,9.45
2023-03-12T04:58:39.549Z,8.90
2023-03-12T05:01:07.459Z,8.15
2023-03-12T05:03:35.677Z,7.93
2023-03-12T05:06:02.765Z,7.68
2023-03-12T05:08:30.175Z,6.47
2023-03-12T05:10:57.343Z,4.57
2023-03-12T05:13:24.332Z,4.97
2023-03-12T05:15:55.781Z,4.88
2023-03-12T05:18:22.902Z,7.55
2023-03-12T05:21:09.851Z,5.85
2023-03-12T05:23:39.189Z,9.75
2023-03-12T05:26:06.826Z,4.47
2023-03-12T05:28:34.905Z,14.40
2023-03-12T05:31:10.671Z,10.82
2023-03-12T05:33:38.237Z,5.22
2023-03-12T05:36:05.971Z,3.22
2023-03-12T05:38:33.691Z,4.53
2023-03-12T05:41:00.640Z,4.47
2023-03-12T05:43:30.525Z,4.35
2023-03-12T05:46:04.004Z,6.03
2023-03-12T05:48:31.863Z,11.35
2023-03-12T05:50:59.051Z,5.35
2023-03-12T05:53:26.661Z,10.63
2023-03-12T05:55:54.187Z,4.65
2023-03-12T05:58:21.757Z,5.07
2023-03-12T06:00:49.833Z,6.10
2023-03-12T06:03:16.977Z,6.03
2023-03-12T06:05:45.622Z,5.38
2023-03-12T06:08:12.578Z,6.32
2023-03-12T06:10:40.695Z,11.18
2023-03-12T06:13:08.920Z,6.47
2023-03-12T06:15:36.065Z,5.80
2023-03-12T06:18:05.262Z,5.20
2023-03-12T06:20:33.030Z,5.05
2023-03-12T06:23:00.145Z,7.07
2023-03-12T06:25:27.336Z,6.55
2023-03-12T06:27:54.324Z,8.82
2023-03-12T06:30:21.642Z,5.03
2023-03-12T06:32:48.516Z,5.55
2023-03-12T06:35:15.808Z,4.90
2023-03-12T06:37:42.719Z,8.88
2023-03-12T06:40:11.057Z,5.22
2023-03-12T06:42:37.998Z,5.35
2023-03-12T06:45:06.271Z,5.20
2023-03-12T06:47:33.163Z,12.70
2023-03-12T06:50:00.149Z,7.25
2023-03-12T06:52:27.703Z,4.38
2023-03-12T06:54:54.678Z,7.30
2023-03-12T06:57:21.617Z,18.15
2023-03-12T06:59:50.507Z,6.68
2023-03-12T07:02:17.930Z,8.13
2023-03-12T07:04:44.937Z,15.60
2023-03-12T07:07:12.011Z,9.00
2023-03-12T07:09:39.063Z,8.38
2023-03-12T07:12:06.350Z,10.80
2023-03-12T07:14:33.311Z,9.23
2023-03-12T07:17:01.926Z,10.30
2023-03-12T07:19:30.360Z,8.23
2023-03-12T07:21:57.993Z,11.43
2023-03-12T07:24:24.963Z,7.55
2023-03-12T07:26:51.877Z,8.13
2023-03-12T07:29:18.895Z,8.07
2023-03-12T07:31:45.904Z,12.00
2023-03-12T07:34:13.640Z,8.75
2023-03-12T07:36:40.819Z,9.02
2023-03-12T07:39:08.872Z,11.45
2023-03-12T07:41:37.364Z,9.68
2023-03-12T07:44:04.714Z,8.38
2023-03-12T07:46:31.814Z,17.50
2023-03-12T07:48:58.804Z,11.20
2023-03-12T07:51:25.707Z,11.57
2023-03-12T07:53:52.856Z,13.32
2023-03-12T07:56:19.921Z,10.02
2023-03-12T07:58:47.030Z,10.50
2023-03-12T08:01:14.229Z,8.98
2023-03-12T08:03:41.294Z,14.05
2023-03-12T08:06:08.356Z,10.73
2023-03-12T08:08:36.388Z,15.43
2023-03-12T08:11:05.175Z,11.68
2023-03-12T08:13:32.161Z,16.67
2023-03-12T08:15:59.280Z,9.82
2023-03-12T08:18:27.110Z,14.73
2023-03-12T08:20:54.960Z,8.77
2023-03-12T08:23:22.510Z,8.77
2023-03-12T08:25:51.083Z,10.75
2023-03-12T08:28:19.447Z,8.32
2023-03-12T08:30:55.720Z,12.52
2023-03-12T08:33:22.817Z,8.10
2023-03-12T08:35:50.339Z,8.23
2023-03-12T08:38:17.724Z,11.32
2023-03-12T08:40:44.909Z,8.98
2023-03-12T08:43:11.944Z,18.88
2023-03-12T08:45:39.026Z,12.15
2023-03-12T08:48:08.044Z,18.17
2023-03-12T08:50:35.033Z,10.48
2023-03-12T08:53:01.923Z,16.40
2023-03-12T08:55:28.857Z,20.30
2023-03-12T08:57:56.570Z,11.70
2023-03-12T09:00:23.545Z,14.43
2023-03-12T09:02:52.170Z,11.82
2023-03-12T09:05:19.568Z,10.55
2023-03-12T09:07:46.622Z,15.20
2023-03-12T09:10:13.577Z,13.00
2023-03-12T09:12:40.525Z,12.82
2023-03-12T09:15:09.096Z,11.57
2023-03-12T09:17:36.136Z,10.80
2023-03-12T09:20:07.324Z,15.77
2023-03-12T09:22:36.909Z,14.55
2023-03-12T09:25:05.627Z,15.35
2023-03-12T09:27:44.680Z,9.55
2023-03-12T09:30:19.054Z,12.40
2023-03-12T09:32:46.676Z,13.40
2023-03-12T09:35:15.791Z,11.15
2023-03-12T09:37:43.092Z,13.25
2023-03-12T09:40:19.949Z,11.73
2023-03-12T09:42:55.948Z,11.48
2023-03-12T09:45:31.402Z,15.45
2023-03-12T09:48:02.449Z,16.10
2023-03-12T09:50:33.380Z,14.95
2023-03-12T09:53:12.867Z,14.50
2023-03-12T09:55:42.513Z,17.63
2023-03-12T09:58:24.516Z,15.65
2023-03-12T10:01:12.087Z,12.95
2023-03-12T10:03:49.721Z,17.33
2023-03-12T10:06:20.466Z,15.15
2023-03-12T10:09:03.898Z,18.83
2023-03-12T10:11:39.915Z,20.60
2023-03-12T10:14:35.234Z,20.98
2023-03-12T10:17:33.184Z,19.00
2023-03-12T10:20:33.843Z,21.17
2023-03-12T10:23:23.225Z,24.13
2023-03-12T10:26:17.336Z,19.60
2023-03-12T10:28:50.705Z,20.73
2023-03-12T10:31:28.423Z,22.55
2023-03-12T10:34:01.946Z,24.65
2023-03-12T10:36:39.436Z,25.42
2023-03-12T10:39:20.096Z,21.67
2023-03-12T10:41:48.866Z,25.42
2023-03-12T10:44:24.795Z,23.20
2023-03-12T10:47:12.991Z,21.23
2023-03-12T10:49:40.039Z,25.42
2023-03-12T10:52:20.254Z,24.23
2023-03-12T10:54:51.414Z,21.85
2023-03-12T10:57:19.363Z,26.92
2023-03-12T10:59:48.542Z,28.85
2023-03-12T11:02:45.799Z,21.10
2023-03-12T11:05:51.479Z,27.27
2023-03-12T11:08:36.150Z,27.65
2023-03-12T11:11:05.500Z,27.02
2023-03-12T11:13:41.849Z,27.10
2023-03-12T11:16:17.748Z,26.80
2023-03-12T11:19:08.343Z,29.65
2023-03-12T11:21:40.350Z,30.25
2023-03-12T11:24:11.544Z,29.45
2023-03-12T11:26:50.321Z,29.15
2023-03-12T11:29:22.972Z,31.88
2023-03-12T11:32:15.549Z,30.38
2023-03-12T11:34:43.337Z,34.15
2023-03-12T11:37:27.376Z,32.58
2023-03-12T11:40:34.151Z,33.22
2023-03-12T11:43:43.767Z,33.08
2023-03-12T11:46:20.043Z,33.13
2023-03-12T11:49:17.676Z,36.00
2023-03-12T11:51:53.358Z,35.58
2023-03-12T11:57:52.055Z,33.20
2023-03-12T12:00:26.360Z,36.63
2023-03-12T12:03:27.314Z,33.47
2023-03-12T12:06:18.417Z,43.25
2023-03-12T12:09:27.696Z,39.67
2023-03-12T12:12:25.064Z,40.20
2023-03-12T12:15:01.122Z,42.90
2023-03-12T12:18:00.133Z,35.00
2023-03-12T12:20:44.500Z,38.63
2023-03-12T12:23:39.206Z,35.97
2023-03-12T12:26:13.498Z,29.65
2023-03-12T12:28:58.824Z,29.13
2023-03-12T12:31:40.711Z,33.00
2023-03-12T12:34:28.562Z,24.33
2023-03-12T12:37:12.081Z,32.45
2023-03-12T12:39:50.118Z,25.27
2023-03-12T12:42:26.842Z,27.48
2023-03-12T12:44:55.377Z,23.67
2023-03-12T12:47:49.321Z,32.15
2023-03-12T12:50:25.590Z,26.88
2023-03-12T12:53:16.203Z,23.95
2023-03-12T12:56:15.393Z,21.88
2023-03-12T12:59:25.045Z,33.40
2023-03-12T13:01:56.095Z,36.42
2023-03-12T13:04:28.796Z,23.35
2023-03-12T13:07:03.246Z,35.53
2023-03-12T13:09:39.403Z,32.30
2023-03-12T13:12:43.561Z,28.90
2023-03-12T13:15:31.283Z,31.90
2023-03-12T13:18:23.307Z,34.00
2023-03-12T13:20:53.170Z,28.25
2023-03-12T13:23:33.139Z,28.77
2023-03-12T13:26:39.234Z,25.13
2023-03-12T13:29:21.490Z,38.60
2023-03-12T13:31:48.403Z,36.10
2023-03-12T13:34:18.155Z,33.03
2023-03-12T13:36:52.574Z,32.40
2023-03-12T13:39:29.717Z,41.80
2023-03-12T13:41:58.418Z,39.78
2023-03-12T13:44:31.205Z,35.60
2023-03-12T13:47:27.499Z,34.58
2023-03-12T13:50:03.542Z,40.70
2023-03-12T13:52:47.074Z,39.83
2023-03-12T13:55:13.825Z,34.28
2023-03-12T13:57:56.660Z,32.00
2023-03-12T14:00:30.635Z,41.63
2023-03-12T14:03:09.834Z,34.05
2023-03-12T14:05:54.493Z,42.90
2023-03-12T14:09:08.351Z,36.83
2023-03-12T14:12:22.504Z,33.10
2023-03-12T14:15:10.267Z,39.50
2023-03-12T14:17:38.808Z,49.80
2023-03-12T14:20:13.242Z,48.13
2023-03-12T14:22:44.786Z,45.53
2023-03-12T14:25:24.241Z,37.22
2023-03-12T14:27:51.418Z,29.45
2023-03-12T14:30:47.686Z,21.80
2023-03-12T14:33:16.014Z,25.25
2023-03-12T14:35:57.202Z,40.05
2023-03-12T14:38:43.421Z,29.17
2023-03-12T14:43:46.400Z,24.77
2023-03-12T14:46:24.729Z,22.55
2023-03-12T14:48:54.998Z,26.08
2023-03-12T14:51:29.511Z,33.90
2023-03-12T14:53:57.381Z,25.50
2023-03-12T14:56:35.311Z,21.85
2023-03-12T14:59:23.444Z,16.25
2023-03-12T15:01:50.797Z,27.10
2023-03-12T15:04:23.830Z,24.65
2023-03-12T15:06:59.750Z,22.40
2023-03-12T15:09:30.683Z,19.52
2023-03-12T15:12:19.767Z,17.20
2023-03-12T15:14:49.569Z,20.17
2023-03-12T15:17:22.532Z,24.30
2023-03-12T15:19:50.427Z,16.52
2023-03-12T15:22:21.398Z,16.83
2023-03-12T15:24:48.913Z,15.77
2023-03-12T15:27:28.212Z,28.95
2023-03-12T15:29:57.109Z,16.42
2023-03-12T15:32:26.029Z,23.63
2023-03-12T15:34:56.486Z,21.30
2023-03-12T15:37:41.439Z,20.67
2023-03-12T15:40:21.505Z,15.90
2023-03-12T15:42:49.859Z,21.27
2023-03-12T15:45:46.233Z,23.98
2023-03-12T15:48:24.580Z,22.55
2023-03-12T15:50:51.567Z,19.02
2023-03-12T15:53:18.532Z,19.10
2023-03-12T15:56:20.894Z,16.98
2023-03-12T15:58:59.359Z,19.05
2023-03-12T16:01:28.175Z,19.45
2023-03-12T16:03:55.932Z,27.67
2023-03-12T16:06:27.967Z,18.23
2023-03-12T16:09:00.290Z,15.23
2023-03-12T16:11:30.953Z,17.83
2023-03-12T16:14:13.914Z,19.75
2023-03-12T16:16:41.170Z,18.90
2023-03-12T16:19:18.077Z,23.05
2023-03-12T16:21:45.590Z,21.33
2023-03-12T16:24:12.659Z,29.25
2023-03-12T16:26:51.423Z,22.67
2023-03-12T16:29:19.778Z,17.55
2023-03-12T16:31:56.115Z,14.55
2023-03-12T16:34:24.140Z,24.02
2023-03-12T16:36:51.553Z,19.48
2023-03-12T16:39:19.097Z,32.08
2023-03-12T16:41:47.438Z,20.77
2023-03-12T16:44:19.683Z,25.17
2023-03-12T16:46:47.254Z,17.95
2023-03-12T16:49:17.142Z,19.17
2023-03-12T16:51:44.488Z,16.02
2023-03-12T16:54:12.427Z,27.00
2023-03-12T16:56:45.440Z,20.23
2023-03-12T16:59:26.012Z,24.02
2023-03-12T17:01:53.848Z,16.80
2023-03-12T17:04:21.007Z,24.42
2023-03-12T17:06:48.161Z,30.38
2023-03-12T17:09:15.211Z,22.95
2023-03-12T17:11:43.117Z,20.00
2023-03-12T17:14:19.860Z,21.38
2023-03-12T17:16:46.952Z,23.35
2023-03-12T17:19:14.301Z,22.35
2023-03-12T17:21:41.582Z,30.55
2023-03-12T17:24:11.170Z,22.42
2023-03-12T17:26:38.189Z,24.23
2023-03-12T17:29:05.473Z,29.20
2023-03-12T17:31:32.684Z,25.52
2023-03-12T17:33:59.830Z,28.95
2023-03-12T17:36:26.863Z,21.25
2023-03-12T17:38:53.826Z,20.75
2023-03-12T17:41:26.429Z,34.50
2023-03-12T17:43:55.343Z,31.80
2023-03-12T17:46:22.528Z,26.63
2023-03-12T17:48:49.693Z,22.52
2023-03-12T17:51:16.931Z,24.52
2023-03-12T17:53:44.291Z,26.38
2023-03-12T17:56:12.792Z,25.17
2023-03-12T17:58:40.424Z,32.10
2023-03-12T18:01:08.243Z,26.08
2023-03-12T18:03:35.351Z,27.08
2023-03-12T18:06:02.902Z,29.27
2023-03-12T18:08:29.892Z,27.95
2023-03-12T18:10:56.861Z,34.90
2023-03-12T18:13:23.787Z,42.45
2023-03-12T18:15:54.600Z,33.42
2023-03-12T18:18:22.657Z,31.63
2023-03-12T18:20:49.982Z,44.75
2023-03-12T18:23:18.160Z,29.08
2023-03-12T18:25:46.256Z,36.58
2023-03-12T18:28:14.106Z,26.95
2023-03-12T18:30:41.200Z,33.38
2023-03-12T18:33:08.141Z,40.05
2023-03-12T18:35:35.243Z,32.83
2023-03-12T18:38:02.345Z,32.40
2023-03-12T18:40:30.004Z,28.02
2023-03-12T18:43:00.656Z,25.58
2023-03-12T18:45:28.651Z,40.15
2023-03-12T18:47:56.024Z,28.77
2023-03-12T18:50:23.434Z,27.13
2023-03-12T18:52:50.458Z,34.15
2023-03-12T18:55:17.791Z,38.40
2023-03-12T18:57:47.176Z,32.20
2023-03-12T19:00:20.193Z,36.72
2023-03-12T19:02:48.500Z,28.67
2023-03-12T19:05:16.471Z,34.08
2023-03-12T19:07:43.801Z,30.05
2023-03-12T19:10:12.329Z,34.92
2023-03-12T19:12:51.653Z,36.88
2023-03-12T19:15:21.242Z,29.25
2023-03-12T19:17:48.227Z,24.95
2023-03-12T19:20:15.639Z,37.22
2023-03-12T19:22:42.628Z,28.67
2023-03-12T19:25:10.042Z,36.40
2023-03-12T19:27:37.045Z,35.65
2023-03-12T19:30:05.525Z,34.78
2023-03-12T19:32:42.570Z,34.20
2023-03-12T19:35:13.758Z,40.40
2023-03-12T19:37:42.311Z,44.28
2023-03-12T19:40:11.016Z,34.92
2023-03-12T19:42:38.293Z,37.30
2023-03-12T19:45:05.929Z,38.63
2023-03-12T19:47:33.368Z,52.50
2023-03-12T19:50:00.746Z,41.38
2023-03-12T19:52:27.962Z,36.50
2023-03-12T19:55:04.241Z,47.70
2023-03-12T19:57:33.368Z,52.92
2023-03-12T20:00:00.333Z,41.00
2023-03-12T20:02:27.593Z,48.10
2023-03-12T20:04:55.509Z,52.08
2023-03-12T20:07:22.721Z,38.30
2023-03-12T20:09:49.741Z,63.92
2023-03-12T20:12:16.769Z,40.80
2023-03-12T20:14:43.786Z,51.67
2023-03-12T20:17:12.233Z,53.40
2023-03-12T20:19:40.244Z,59.28
2023-03-12T20:22:07.728Z,35.20
2023-03-12T20:24:35.244Z,30.63
2023-03-12T20:27:04.011Z,47.42
2023-03-12T20:29:31.057Z,46.17
2023-03-12T20:31:58.146Z,27.80
2023-03-12T20:34:25.371Z,38.58
2023-03-12T20:36:52.386Z,41.28
2023-03-12T20:39:19.592Z,37.15
2023-03-12T20:41:46.554Z,31.70
2023-03-12T20:44:13.636Z,31.65
2023-03-12T20:46:40.622Z,32.70
2023-03-12T20:49:07.761Z,31.15
2023-03-12T20:51:34.694Z,30.42
2023-03-12T20:54:01.833Z,27.70
2023-03-12T20:56:28.874Z,26.42
2023-03-12T20:58:55.962Z,37.75
2023-03-12T21:01:23.053Z,36.35
2023-03-12T21:03:50.047Z,31.48
2023-03-12T21:06:17.111Z,32.00
2023-03-12T21:08:44.711Z,27.63
2023-03-12T21:11:11.731Z,33.25
2023-03-12T21:13:38.651Z,27.60
2023-03-12T21:16:07.595Z,33.13
2023-03-12T21:18:35.024Z,36.38
2023-03-12T21:21:07.415Z,29.60
2023-03-12T21:23:35.656Z,25.83
2023-03-12T21:26:08.883Z,20.55
2023-03-12T21:28:36.442Z,33.20
2023-03-12T21:31:08.865Z,27.15
2023-03-12T21:33:36.116Z,27.50
2023-03-12T21:36:08.861Z,32.80
2023-03-12T21:38:36.998Z,33.15
2023-03-12T21:41:12.384Z,22.75
2023-03-12T21:43:40.274Z,31.75
2023-03-12T21:46:14.361Z,27.45
2023-03-12T21:48:45.080Z,37.58
2023-03-12T21:51:15.124Z,28.05
2023-03-12T21:53:42.555Z,22.58
2023-03-12T21:56:10.860Z,21.33
2023-03-12T21:58:38.124Z,28.60
2023-03-12T22:01:16.880Z,23.20
2023-03-12T22:03:45.912Z,27.77
2023-03-12T22:06:15.029Z,25.88
2023-03-12T22:08:43.731Z,22.60
2023-03-12T22:11:10.791Z,27.42
2023-03-12T22:13:38.182Z,34.80
2023-03-12T22:16:08.375Z,25.92
2023-03-12T22:18:41.115Z,33.42
2023-03-12T22:21:09.058Z,28.15
2023-03-12T22:23:37.410Z,38.33
2023-03-12T22:26:06.444Z,29.20
2023-03-12T22:28:34.244Z,28.15
2023-03-12T22:31:07.588Z,26.55
2023-03-12T22:33:36.068Z,36.10
2023-03-12T22:36:11.543Z,29.90
2023-03-12T22:38:39.677Z,19.52
2023-03-12T22:41:27.895Z,21.88
2023-03-12T22:43:57.879Z,27.55
2023-03-12T22:46:25.926Z,24.02
2023-03-12T22:48:56.030Z,22.38
2023-03-12T22:51:24.412Z,23.00
2023-03-12T22:53:52.329Z,28.00
2023-03-12T22:56:19.397Z,31.52
2023-03-12T22:58:47.606Z,24.55
2023-03-12T23:01:18.872Z,25.75
2023-03-12T23:03:47.279Z,28.15
2023-03-12T23:06:26.756Z,23.30
2023-03-12T23:08:57.208Z,24.65
2023-03-12T23:11:26.944Z,25.52
2023-03-12T23:13:54.647Z,17.23
2023-03-12T23:16:25.476Z,20.05
2023-03-12T23:18:53.316Z,23.95
2023-03-12T23:21:23.936Z,18.08
2023-03-12T23:23:51.789Z,21.15
2023-03-12T23:26:23.214Z,18.10
2023-03-12T23:28:53.476Z,24.48
2023-03-12T23:31:21.546Z,19.92
2023-03-12T23:33:48.892Z,27.55
2023-03-12T23:36:18.915Z,21.73
2023-03-12T23:38:47.501Z,22.00
2023-03-12T23:41:25.131Z,22.88
2023-03-12T23:43:53.124Z,18.80
2023-03-12T23:46:20.838Z,30.70
2023-03-12T23:48:48.396Z,16.50
2023-03-12T23:51:19.523Z,20.35
2023-03-12T23:53:49.960Z,20.02
2023-03-12T23:56:21.394Z,25.60
2023-03-12T23:58:49.938Z,24.38
